Главная страница
METAR-TAF:

METAR-TAF

Аэропорты :

Николаев, Украина

широта: 47-03-29N, долгота: 031-55-15E, высота над уровнем моря: 56 м

Текущие метеонаблюдения

Эта сводка был подготовлена 25 минут назад, в 12:00 UTC
Ветер 8 Узел от северно-северо-западный
Температура 21°C
Влажность 43%
Давление 1016 hPa
Видимость 10 км и более
Нет облачности ниже 1500 м, и нет кучево-дождевой облачности

METAR: UKON 201200Z 33004MPS CAVOK 21/08 Q1016 NOSIG

Время: 15:25 (12:25 UTC)

Прогноз

Эта сводка был подготовлена 1 час и 22 минут назад, в 11:03 UTC
Прогноз действительный с 20-го 12 UTC до 20-го 21 UTC
Ветер 6 Узел от северный
Видимость 10 км и более
Отдельные облака на высоте 2000 фута, Кучево-дождевые.

TAF: UKON 201103Z 2012/2021 35003MPS 9999 SCT020CB

Метеонаблюдения и прогнозы для более 4000 аэропортов (сводки METAR и TAF).

Имеющиеся станции представлены на карте желтыми и красными точками.

Чтобы увидеть название станции, наведите на нее мышь.

Затем щелкните, чтобы увидеть метеонаблюдения и метеопрогнозы.

Управление картой: чтобы увеличить масштаб, щелкните зеленые кнопки с черным крестиком; чтобы уменьшить масштаб, щелкните зеленую кнопку с тире; для просмотра соседних карт щелкайте зеленые стрелки.


METAR-TAF: